Time;durP1;ratioP1;P1;durP2;ratioP2;P2;SDS_P1;SDS_P2;PMS_P1;PMS_P2;Temp;Humidity;BMP_temperature;BMP_pressure;BME280_temperature;BME280_humidity;BME280_pressure;Samples;Min_cycle;Max_cycle;Signal;HPM_P1;HPM_P2
2021/05/15 00:01:34;;;;;;;11.33;5.72;;;;;;;11.82;96.13;98556.67;1737301;82;20906;-69
2021/05/15 00:04:02;;;;;;;10.35;6.65;;;;;;;11.85;96.00;98557.36;1737155;82;21481;-69
2021/05/15 00:06:29;;;;;;;12.50;6.25;;;;;;;11.84;95.99;98555.75;1737108;82;21045;-68
2021/05/15 00:08:57;;;;;;;9.50;6.20;;;;;;;11.87;96.01;98560.56;1705847;82;21021;-69
2021/05/15 00:11:24;;;;;;;12.00;6.37;;;;;;;11.87;96.01;98548.76;1661830;86;20958;-69
2021/05/15 00:13:51;;;;;;;10.10;5.95;;;;;;;11.87;96.08;98553.69;1707814;84;21095;-69
2021/05/15 00:16:19;;;;;;;10.08;6.20;;;;;;;11.85;96.23;98549.11;1707838;84;21558;-69
2021/05/15 00:18:46;;;;;;;10.60;6.47;;;;;;;11.86;96.38;98548.53;1707830;84;20951;-69
2021/05/15 00:21:14;;;;;;;7.72;6.05;;;;;;;11.88;96.82;98548.41;1707881;84;21018;-69
2021/05/15 00:23:42;;;;;;;11.28;6.33;;;;;;;11.92;97.05;98551.27;1707959;84;20944;-69
2021/05/15 00:26:12;;;;;;;12.43;7.70;;;;;;;11.94;97.20;98543.47;1707886;84;21825;-69
2021/05/15 00:28:37;;;;;;;11.70;6.50;;;;;;;11.99;97.30;98545.97;1707795;84;20967;-69
2021/05/15 00:31:04;;;;;;;8.98;5.75;;;;;;;12.02;97.48;98538.97;1720686;82;20946;-68
2021/05/15 00:33:31;;;;;;;12.88;6.25;;;;;;;12.06;97.60;98537.13;1708874;82;21065;-69
2021/05/15 00:35:58;;;;;;;10.63;5.33;;;;;;;12.11;97.64;98542.38;1709601;83;21637;-70
2021/05/15 00:38:25;;;;;;;9.73;6.42;;;;;;;12.13;97.37;98543.60;1712407;82;21621;-69
2021/05/15 00:40:51;;;;;;;7.80;5.95;;;;;;;12.15;97.25;98546.00;1712015;83;21575;-69
2021/05/15 00:43:18;;;;;;;11.43;5.37;;;;;;;12.16;97.16;98548.41;1711764;83;22229;-72
2021/05/15 00:45:46;;;;;;;9.13;5.17;;;;;;;12.19;97.02;98549.66;1711444;83;21762;-70
2021/05/15 00:48:14;;;;;;;10.18;6.20;;;;;;;12.19;96.88;98552.41;1715411;82;21576;-69
2021/05/15 00:50:43;;;;;;;17.48;6.85;;;;;;;12.18;96.76;98551.60;1709104;83;21182;-68
2021/05/15 00:53:09;;;;;;;15.23;7.70;;;;;;;12.16;96.63;98552.53;1709980;83;20989;-70
2021/05/15 00:55:36;;;;;;;15.03;7.45;;;;;;;12.14;96.43;98553.45;1713828;83;20982;-69
2021/05/15 00:58:03;;;;;;;11.18;7.08;;;;;;;12.11;96.30;98550.63;1710547;83;21134;-69
2021/05/15 01:00:31;;;;;;;16.42;6.90;;;;;;;12.07;96.18;98552.48;1710560;83;21039;-73
2021/05/15 01:03:19;;;;;;;8.48;5.80;;;;;;;12.01;95.98;98550.55;1708048;83;21095;-69
2021/05/15 01:05:45;;;;;;;10.15;5.60;;;;;;;11.93;95.74;98551.48;1703502;83;21010;-73
2021/05/15 01:08:13;;;;;;;7.60;6.00;;;;;;;11.85;95.78;98554.61;1703780;83;21510;-69
2021/05/15 01:10:40;;;;;;;8.20;6.58;;;;;;;11.82;96.04;98555.30;1701083;83;22503;-69
2021/05/15 01:13:11;;;;;;;7.90;5.75;;;;;;;11.79;96.35;98555.20;1702571;83;21610;-69
2021/05/15 01:15:36;;;;;;;11.53;6.03;;;;;;;11.76;96.40;98551.16;1701343;83;21071;-69
2021/05/15 01:18:02;;;;;;;12.70;6.17;;;;;;;11.71;96.21;98553.34;1703318;83;20957;-68
2021/05/15 01:20:31;;;;;;;7.87;5.37;;;;;;;11.65;96.23;98552.78;1703035;83;20889;-68
2021/05/15 01:22:59;;;;;;;10.88;6.90;;;;;;;11.61;96.55;98558.75;1701669;83;21093;-69
2021/05/15 01:25:26;;;;;;;8.33;5.90;;;;;;;11.58;96.81;98560.81;1702365;83;21004;-69
2021/05/15 01:27:54;;;;;;;9.93;6.12;;;;;;;11.57;96.98;98560.59;1703700;83;21241;-70
2021/05/15 01:30:22;;;;;;;13.22;7.22;;;;;;;11.53;97.12;98557.76;1697537;83;20985;-69
2021/05/15 01:32:49;;;;;;;16.05;8.20;;;;;;;11.53;97.33;98556.95;1702089;83;21004;-68
2021/05/15 01:35:17;;;;;;;7.67;5.87;;;;;;;11.51;97.42;98560.63;1702376;83;21071;-74
2021/05/15 01:37:43;;;;;;;18.85;10.05;;;;;;;11.48;97.34;98549.75;1676839;83;21127;-69
2021/05/15 01:40:14;;;;;;;13.93;8.33;;;;;;;11.45;97.23;98556.51;1694923;83;21008;-69
2021/05/15 01:42:40;;;;;;;21.95;9.58;;;;;;;11.42;97.45;98559.38;1654676;85;21503;-68
2021/05/15 01:45:08;;;;;;;7.35;5.67;;;;;;;11.39;97.61;98562.81;1664908;86;20911;-68
2021/05/15 01:47:38;;;;;;;9.38;6.45;;;;;;;11.38;97.70;98561.20;1664774;86;21579;-68
2021/05/15 01:50:06;;;;;;;9.60;6.15;;;;;;;11.37;97.80;98569.22;1680274;84;21581;-68
2021/05/15 01:52:33;;;;;;;11.35;5.65;;;;;;;11.36;97.97;98572.31;1692721;84;21087;-69
2021/05/15 01:55:03;;;;;;;9.33;5.03;;;;;;;11.34;98.04;98574.60;1692706;84;20922;-70
2021/05/15 01:57:29;;;;;;;6.42;4.30;;;;;;;11.33;98.14;98571.05;1692769;84;20943;-71
2021/05/15 01:59:56;;;;;;;7.22;4.70;;;;;;;11.33;98.27;98577.13;1692650;84;20934;-71
2021/05/15 02:02:22;;;;;;;5.55;3.95;;;;;;;11.32;98.34;98568.08;1692887;84;20967;-71
2021/05/15 02:04:48;;;;;;;5.95;4.25;;;;;;;11.32;98.36;98565.33;1696527;84;21045;-71
2021/05/15 02:07:17;;;;;;;5.15;3.47;;;;;;;11.34;98.31;98570.48;1700090;83;20940;-69
2021/05/15 02:09:43;;;;;;;5.62;4.60;;;;;;;11.33;98.26;98563.38;1700481;83;20923;-71
2021/05/15 02:12:11;;;;;;;4.75;3.55;;;;;;;11.32;98.20;98563.16;1700634;84;20979;-69
2021/05/15 02:14:38;;;;;;;5.50;3.77;;;;;;;11.31;98.17;98566.48;1700448;84;20923;-69
2021/05/15 02:17:05;;;;;;;6.00;4.10;;;;;;;11.31;98.28;98567.05;1700534;84;21077;-69
2021/05/15 02:19:32;;;;;;;5.62;3.62;;;;;;;11.31;98.25;98573.34;1700439;84;20975;-70
2021/05/15 02:21:58;;;;;;;5.95;3.70;;;;;;;11.32;98.16;98577.70;1700516;84;21529;-71
2021/05/15 02:24:25;;;;;;;6.03;3.60;;;;;;;11.32;98.20;98579.64;1700528;84;21024;-70
2021/05/15 02:26:52;;;;;;;6.42;4.08;;;;;;;11.33;98.22;98583.99;1700559;83;21514;-71
2021/05/15 02:29:19;;;;;;;8.45;4.22;;;;;;;11.34;98.14;98585.59;1700607;83;21030;-70
2021/05/15 02:31:47;;;;;;;6.50;3.83;;;;;;;11.33;98.14;98586.16;1700421;83;21517;-72
2021/05/15 02:34:13;;;;;;;5.83;3.90;;;;;;;11.32;98.11;98590.63;1700506;84;21505;-71
2021/05/15 02:36:41;;;;;;;6.67;4.10;;;;;;;11.31;97.99;98595.33;1700375;83;20924;-71
2021/05/15 02:39:08;;;;;;;6.92;4.33;;;;;;;11.28;97.95;98597.95;1700407;84;20967;-70
2021/05/15 02:41:35;;;;;;;9.50;4.97;;;;;;;11.27;98.16;98597.73;1700411;83;21681;-70
2021/05/15 02:44:02;;;;;;;7.12;5.28;;;;;;;11.29;98.34;98599.56;1700422;84;20983;-71
2021/05/15 02:46:28;;;;;;;6.85;4.97;;;;;;;11.29;98.36;98600.94;1686019;83;20909;-71
2021/05/15 02:48:55;;;;;;;8.05;4.47;;;;;;;11.30;98.48;98601.16;1669194;84;21088;-71
2021/05/15 02:51:22;;;;;;;6.67;4.15;;;;;;;11.33;98.66;98604.03;1686591;84;20986;-71
2021/05/15 02:53:49;;;;;;;12.73;6.87;;;;;;;11.39;98.79;98614.22;1700431;83;21097;-71
2021/05/15 02:56:16;;;;;;;9.33;5.47;;;;;;;11.45;98.78;98616.97;1700350;84;20915;-71
2021/05/15 02:58:43;;;;;;;6.10;4.70;;;;;;;11.52;98.60;98615.83;1700396;84;20955;-71
2021/05/15 03:01:10;;;;;;;5.83;4.35;;;;;;;11.57;98.40;98618.31;1700326;83;21035;-71
2021/05/15 03:03:36;;;;;;;6.08;3.95;;;;;;;11.60;98.15;98617.62;1686017;83;21073;-70
2021/05/15 03:06:03;;;;;;;6.28;3.95;;;;;;;11.65;97.95;98628.95;1663319;84;21575;-71
2021/05/15 03:08:29;;;;;;;6.78;4.03;;;;;;;11.66;97.84;98628.61;1661747;86;20905;-70
2021/05/15 03:10:56;;;;;;;6.45;3.47;;;;;;;11.70;97.75;98628.16;1661889;86;20944;-71
2021/05/15 03:13:22;;;;;;;4.87;3.35;;;;;;;11.75;97.61;98627.12;1661754;86;21575;-70
2021/05/15 03:15:49;;;;;;;7.33;3.55;;;;;;;11.81;97.40;98626.56;1661796;86;20932;-70
2021/05/15 03:18:16;;;;;;;4.90;3.00;;;;;;;11.88;97.14;98628.73;1662871;85;21857;-71
2021/05/15 03:20:42;;;;;;;7.28;3.17;;;;;;;11.94;97.01;98630.10;1676613;84;20984;-70
2021/05/15 03:23:08;;;;;;;7.20;3.80;;;;;;;12.00;96.69;98630.66;1666184;85;21035;-70
2021/05/15 03:25:35;;;;;;;5.37;3.20;;;;;;;12.03;96.39;98634.90;1689728;84;21581;-70
2021/05/15 03:28:01;;;;;;;4.95;3.17;;;;;;;12.05;96.02;98636.73;1689651;84;21011;-71
2021/05/15 03:30:28;;;;;;;4.33;3.15;;;;;;;12.10;95.84;98634.31;1663172;85;21510;-72
2021/05/15 03:32:54;;;;;;;4.65;3.35;;;;;;;12.13;95.62;98636.37;1661856;86;20956;-69
2021/05/15 03:35:21;;;;;;;3.90;3.42;;;;;;;12.15;95.47;98635.41;1665694;85;21698;-70
2021/05/15 03:37:47;;;;;;;4.30;2.50;;;;;;;12.17;95.41;98632.55;1661848;86;20949;-73
2021/05/15 03:40:14;;;;;;;4.78;2.83;;;;;;;12.22;95.29;98632.88;1661825;86;21027;-71
2021/05/15 03:42:42;;;;;;;4.80;3.55;;;;;;;12.26;95.11;98635.16;1661704;86;20956;-71
2021/05/15 03:45:10;;;;;;;5.55;3.37;;;;;;;12.31;95.12;98632.16;1661766;86;20950;-71
2021/05/15 03:47:36;;;;;;;7.92;4.03;;;;;;;12.35;94.98;98638.57;1661996;86;21471;-71
2021/05/15 03:50:05;;;;;;;6.95;4.25;;;;;;;12.41;94.85;98633.05;1654465;85;21609;-71
2021/05/15 03:52:32;;;;;;;9.10;4.95;;;;;;;12.48;94.71;98635.20;1689872;85;21023;-71
2021/05/15 03:54:59;;;;;;;7.60;4.17;;;;;;;12.54;94.20;98635.17;1689830;83;21070;-71
2021/05/15 03:57:25;;;;;;;6.45;4.12;;;;;;;12.58;94.00;98636.66;1689661;83;20955;-73
2021/05/15 03:59:52;;;;;;;6.75;3.80;;;;;;;12.60;93.50;98637.11;1676594;85;20988;-72
2021/05/15 04:02:22;;;;;;;7.55;4.15;;;;;;;12.62;93.14;98636.18;1662025;86;20977;-71
2021/05/15 04:04:47;;;;;;;5.80;3.95;;;;;;;12.63;92.87;98638.58;1661875;86;21476;-70
2021/05/15 04:07:15;;;;;;;5.42;3.45;;;;;;;12.66;92.79;98642.59;1663197;86;21071;-70
2021/05/15 04:09:43;;;;;;;7.58;3.92;;;;;;;12.71;92.81;98642.34;1663051;85;20964;-71
2021/05/15 04:12:14;;;;;;;7.17;3.92;;;;;;;12.71;92.33;98643.11;1663049;86;21012;-71
2021/05/15 04:14:51;;;;;;;4.83;3.92;;;;;;;12.73;92.22;98644.13;1663304;86;21075;-72
2021/05/15 04:17:29;;;;;;;6.97;3.80;;;;;;;12.73;92.13;98644.13;1640198;86;20949;-71
2021/05/15 04:19:51;;;;;;;5.00;3.52;;;;;;;12.73;92.32;98650.44;1662362;86;21057;-72
2021/05/15 04:22:17;;;;;;;5.22;3.62;;;;;;;12.75;92.45;98652.84;1686398;84;20973;-73
2021/05/15 04:24:44;;;;;;;4.20;3.60;;;;;;;12.79;92.49;98649.03;1690505;84;21499;-72
2021/05/15 04:27:12;;;;;;;7.20;3.45;;;;;;;12.85;92.67;98650.95;1691150;84;21405;-72
2021/05/15 04:29:39;;;;;;;5.60;3.87;;;;;;;12.91;92.66;98648.17;1689432;84;21282;-75
2021/05/15 04:32:06;;;;;;;6.33;3.58;;;;;;;12.98;92.50;98655.83;1689692;84;21452;-71
2021/05/15 04:34:33;;;;;;;6.87;3.80;;;;;;;13.02;92.28;98649.26;1689517;84;20937;-71
2021/05/15 04:36:59;;;;;;;7.87;3.70;;;;;;;13.07;92.15;98652.33;1689496;84;21677;-74
2021/05/15 04:39:28;;;;;;;5.83;4.10;;;;;;;13.10;92.00;98657.94;1690507;84;21005;-71
2021/05/15 04:41:58;;;;;;;4.35;3.50;;;;;;;13.15;92.15;98655.50;1691011;84;20985;-71
2021/05/15 04:44:24;;;;;;;13.25;6.37;;;;;;;13.21;91.93;98659.63;1691082;84;21076;-71
2021/05/15 04:46:50;;;;;;;7.22;4.12;;;;;;;13.26;91.94;98662.12;1690990;84;20933;-71
2021/05/15 04:49:18;;;;;;;6.78;3.85;;;;;;;13.31;91.61;98663.78;1690917;84;20933;-70
2021/05/15 04:51:45;;;;;;;9.13;3.77;;;;;;;13.35;91.43;98672.94;1667208;84;20984;-72
2021/05/15 04:54:12;;;;;;;8.78;3.67;;;;;;;13.38;91.40;98673.03;1691099;84;20945;-71
2021/05/15 04:56:39;;;;;;;5.17;3.75;;;;;;;13.46;91.71;98678.95;1691013;84;21878;-72
2021/05/15 04:59:06;;;;;;;6.58;4.22;;;;;;;13.58;91.70;98675.30;1690971;84;20973;-71
2021/05/15 05:01:33;;;;;;;6.80;4.95;;;;;;;13.74;91.85;98675.30;1690949;84;20981;-71
2021/05/15 05:04:03;;;;;;;6.25;4.10;;;;;;;13.87;90.05;98674.01;1690885;84;20969;-71
2021/05/15 05:06:28;;;;;;;5.47;4.22;;;;;;;13.96;89.30;98679.33;1686150;84;21000;-72
2021/05/15 05:08:55;;;;;;;8.15;4.37;;;;;;;14.01;89.11;98679.86;1684940;85;21562;-72
2021/05/15 05:11:22;;;;;;;8.75;4.70;;;;;;;14.09;89.08;98686.34;1689747;85;20972;-73
2021/05/15 05:13:49;;;;;;;6.45;4.22;;;;;;;14.13;88.53;98685.27;1678850;85;20940;-72
2021/05/15 05:16:15;;;;;;;7.47;3.50;;;;;;;14.21;88.37;98687.60;1672972;85;21094;-70
2021/05/15 05:18:42;;;;;;;6.28;3.47;;;;;;;14.33;88.25;98688.86;1661808;86;21590;-73
2021/05/15 05:21:08;;;;;;;7.35;4.15;;;;;;;14.45;87.58;98685.97;1661896;85;20993;-71
2021/05/15 05:23:35;;;;;;;5.97;3.37;;;;;;;14.57;87.21;98689.76;1661810;86;21045;-72
2021/05/15 05:26:01;;;;;;;5.15;3.22;;;;;;;14.72;86.56;98695.22;1661889;86;21610;-72
2021/05/15 05:28:35;;;;;;;5.65;3.33;;;;;;;14.82;85.12;98700.16;1661829;86;20932;-73
2021/05/15 05:30:57;;;;;;;7.37;3.58;;;;;;;14.89;84.13;98695.36;1660931;86;20873;-73
2021/05/15 05:33:24;;;;;;;5.10;3.67;;;;;;;14.98;83.84;98698.70;1661770;86;21071;-74
2021/05/15 05:35:50;;;;;;;8.83;3.47;;;;;;;15.10;83.37;98692.98;1661683;86;20924;-74
2021/05/15 05:38:17;;;;;;;5.15;3.15;;;;;;;15.26;82.60;98699.80;1662797;85;21032;-74
2021/05/15 05:40:44;;;;;;;8.10;3.10;;;;;;;15.38;81.67;98698.23;1681641;85;21012;-75
2021/05/15 05:43:10;;;;;;;8.50;2.85;;;;;;;15.52;81.29;98704.61;1671083;84;20893;-75
2021/05/15 05:45:37;;;;;;;4.28;2.70;;;;;;;15.67;80.27;98708.42;1660960;86;21487;-76
2021/05/15 05:48:04;;;;;;;5.47;2.83;;;;;;;15.82;80.22;98708.88;1688706;85;21079;-76
2021/05/15 05:50:31;;;;;;;3.72;2.77;;;;;;;15.94;79.12;98710.64;1689064;85;21004;-78
2021/05/15 05:52:58;;;;;;;4.78;3.33;;;;;;;16.04;77.77;98716.94;1688960;84;21075;-75
2021/05/15 05:55:25;;;;;;;8.43;5.55;;;;;;;16.15;76.26;98714.55;1689118;84;21048;-74
2021/05/15 05:57:51;;;;;;;24.23;21.10;;;;;;;16.23;76.08;98715.42;1689030;84;21274;-77
2021/05/15 06:00:19;;;;;;;5.87;3.20;;;;;;;16.38;76.78;98715.05;1689114;84;21020;-77
2021/05/15 06:02:47;;;;;;;7.65;2.70;;;;;;;16.55;74.02;98718.65;1689064;83;21008;-72
2021/05/15 06:05:13;;;;;;;4.85;2.55;;;;;;;16.56;73.79;98713.91;1689293;83;21246;-72
2021/05/15 06:07:40;;;;;;;9.98;4.58;;;;;;;16.57;73.95;98719.66;1691048;84;21020;-72
2021/05/15 06:10:08;;;;;;;9.83;4.62;;;;;;;16.61;73.90;98721.89;1689541;84;21509;-74
2021/05/15 06:12:34;;;;;;;32.75;17.02;;;;;;;16.69;73.87;98722.23;1682292;85;21119;-72
2021/05/15 06:15:02;;;;;;;12.15;7.00;;;;;;;16.75;73.74;98731.20;1677575;84;20984;-75
2021/05/15 06:17:29;;;;;;;8.68;4.47;;;;;;;16.81;72.73;98727.50;1690625;84;21079;-77
2021/05/15 06:19:55;;;;;;;8.30;4.25;;;;;;;16.83;72.67;98724.56;1690562;84;20976;-77
2021/05/15 06:22:22;;;;;;;19.87;10.32;;;;;;;16.90;72.35;98734.95;1689009;84;21138;-76
2021/05/15 06:24:50;;;;;;;4.37;2.65;;;;;;;17.05;71.88;98733.95;1690307;84;20897;-76
2021/05/15 06:27:16;;;;;;;5.25;2.20;;;;;;;17.19;70.70;98726.97;1690391;84;21555;-76
2021/05/15 06:29:43;;;;;;;13.45;6.33;;;;;;;17.30;70.93;98724.52;1690265;84;21020;-76
2021/05/15 06:32:10;;;;;;;14.25;6.42;;;;;;;17.47;71.19;98730.02;1690370;84;21067;-76
2021/05/15 06:34:36;;;;;;;5.17;2.87;;;;;;;17.59;70.66;98728.35;1690343;84;21658;-76
2021/05/15 06:37:04;;;;;;;16.32;8.55;;;;;;;17.66;70.03;98731.23;1690948;84;20956;-76
2021/05/15 06:39:31;;;;;;;12.37;6.25;;;;;;;17.71;69.39;98729.48;1690964;84;20973;-76
2021/05/15 06:41:58;;;;;;;3.90;2.60;;;;;;;17.77;69.24;98727.96;1691119;84;20925;-76
2021/05/15 06:44:25;;;;;;;5.00;2.08;;;;;;;17.83;68.44;98727.61;1691076;84;21012;-76
2021/05/15 06:46:51;;;;;;;15.60;7.72;;;;;;;17.83;68.42;98738.13;1690994;84;21106;-76
2021/05/15 06:49:18;;;;;;;16.67;7.55;;;;;;;17.85;68.19;98737.15;1691028;84;20937;-76
2021/05/15 06:51:44;;;;;;;10.50;4.40;;;;;;;17.90;67.87;98741.55;1690961;84;20993;-76
2021/05/15 06:54:11;;;;;;;4.42;2.80;;;;;;;17.95;67.48;98743.95;1691107;84;21009;-76
2021/05/15 06:56:37;;;;;;;8.55;3.30;;;;;;;18.04;66.49;98744.42;1690943;84;20893;-76
2021/05/15 06:59:04;;;;;;;9.03;2.98;;;;;;;18.14;65.40;98746.48;1690853;84;21907;-76
2021/05/15 07:01:31;;;;;;;3.42;2.55;;;;;;;18.15;64.77;98747.48;1690930;84;20893;-76
2021/05/15 07:03:58;;;;;;;2.62;2.15;;;;;;;18.19;64.99;98741.95;1691074;84;20902;-76
2021/05/15 07:06:24;;;;;;;3.58;2.30;;;;;;;18.29;64.97;98744.02;1690204;84;21016;-76
2021/05/15 07:08:54;;;;;;;5.78;2.05;;;;;;;18.44;63.57;98744.31;1689739;84;21615;-76
2021/05/15 07:11:20;;;;;;;3.75;2.20;;;;;;;18.52;62.56;98738.77;1689678;85;21093;-77
2021/05/15 07:13:49;;;;;;;2.72;2.42;;;;;;;18.59;63.61;98743.78;1689649;84;20905;-76
2021/05/15 07:16:16;;;;;;;6.15;2.40;;;;;;;18.69;62.32;98744.47;1689792;84;20993;-76
2021/05/15 07:18:43;;;;;;;4.58;2.10;;;;;;;18.69;62.08;98740.89;1689623;85;20996;-77
2021/05/15 07:21:11;;;;;;;3.77;1.90;;;;;;;18.64;61.95;98739.28;1689695;85;20901;-76
2021/05/15 07:23:38;;;;;;;5.70;2.10;;;;;;;18.61;62.03;98748.98;1689536;85;21152;-76
2021/05/15 07:26:10;;;;;;;3.10;1.95;;;;;;;18.58;62.89;98741.39;1689872;84;21039;-74
2021/05/15 07:28:37;;;;;;;4.87;2.47;;;;;;;18.56;62.27;98752.90;1689181;84;21570;-74
2021/05/15 07:31:04;;;;;;;7.67;2.00;;;;;;;18.52;62.56;98752.08;1681643;84;21000;-74
2021/05/15 07:33:30;;;;;;;1.92;1.70;;;;;;;18.46;63.20;98748.90;1664428;84;20904;-74
2021/05/15 07:35:57;;;;;;;3.27;1.60;;;;;;;18.41;62.33;98747.88;1661957;86;21843;-74
2021/05/15 07:38:24;;;;;;;4.50;1.98;;;;;;;18.34;61.13;98745.64;1661839;86;20960;-74
2021/05/15 07:40:51;;;;;;;3.35;1.95;;;;;;;18.29;62.15;98749.57;1662060;86;21539;-73
2021/05/15 07:43:23;;;;;;;6.22;1.82;;;;;;;18.32;61.00;98746.62;1662034;86;20893;-73
2021/05/15 07:45:47;;;;;;;4.28;1.65;;;;;;;18.32;61.99;98749.39;1661697;86;20869;-74
2021/05/15 07:48:14;;;;;;;2.27;1.60;;;;;;;18.36;62.21;98748.23;1662020;86;21110;-74
2021/05/15 07:50:40;;;;;;;1.80;1.70;;;;;;;18.38;61.24;98745.87;1661891;86;21522;-74
2021/05/15 07:53:08;;;;;;;2.60;1.45;;;;;;;18.40;61.39;98744.89;1662007;86;21024;-74
2021/05/15 07:55:35;;;;;;;4.80;1.60;;;;;;;18.37;59.67;98749.83;1662021;86;21563;-74
2021/05/15 07:58:01;;;;;;;13.58;4.40;;;;;;;18.32;60.73;98745.22;1662059;86;20905;-74
2021/05/15 08:00:27;;;;;;;4.10;1.90;;;;;;;18.31;61.16;98748.59;1666882;85;21076;-74
2021/05/15 08:02:54;;;;;;;3.90;1.70;;;;;;;18.36;61.46;98746.84;1673185;85;21012;-74
2021/05/15 08:05:20;;;;;;;6.22;1.75;;;;;;;18.44;61.26;98756.83;1661973;86;20913;-74
2021/05/15 08:07:47;;;;;;;7.70;1.60;;;;;;;18.59;60.07;98747.95;1661905;86;21617;-73
2021/05/15 08:10:14;;;;;;;3.95;1.52;;;;;;;18.72;60.74;98758.19;1662070;86;20961;-74
2021/05/15 08:12:42;;;;;;;3.55;1.75;;;;;;;18.89;60.58;98757.48;1661947;86;21546;-74
2021/05/15 08:15:09;;;;;;;3.52;1.80;;;;;;;19.03;58.62;98749.20;1662009;86;20905;-74
2021/05/15 08:17:36;;;;;;;5.25;2.17;;;;;;;19.12;58.27;98755.17;1661977;86;20956;-74
2021/05/15 08:20:04;;;;;;;1.72;1.40;;;;;;;19.24;58.54;98758.20;1662001;86;21016;-74
2021/05/15 08:22:32;;;;;;;3.70;1.90;;;;;;;19.35;56.83;98758.23;1662047;86;20924;-74
2021/05/15 08:24:58;;;;;;;2.10;1.90;;;;;;;19.35;56.72;98757.63;1662119;86;21486;-73
2021/05/15 08:27:25;;;;;;;3.12;1.85;;;;;;;19.26;56.38;98766.15;1635338;86;21020;-73
2021/05/15 08:29:53;;;;;;;3.60;1.70;;;;;;;19.14;56.53;98761.14;1662061;86;21056;-73
2021/05/15 08:32:20;;;;;;;4.12;1.92;;;;;;;19.05;55.94;98767.69;1661911;86;21511;-74
2021/05/15 08:34:47;;;;;;;3.67;1.70;;;;;;;19.01;56.65;98766.87;1675375;85;20901;-76
2021/05/15 08:37:14;;;;;;;4.17;1.65;;;;;;;19.11;56.34;98768.08;1667690;85;21589;-74
2021/05/15 08:39:40;;;;;;;3.83;1.35;;;;;;;19.50;56.63;98764.04;1661912;86;20905;-74
2021/05/15 08:42:07;;;;;;;2.33;1.50;;;;;;;19.87;55.35;98756.75;1661955;86;20893;-74
2021/05/15 08:44:38;;;;;;;2.15;1.60;;;;;;;20.16;53.94;98758.95;1661942;86;21016;-73
2021/05/15 08:47:05;;;;;;;2.83;1.20;;;;;;;20.28;52.44;98771.66;1661994;86;20961;-74
2021/05/15 08:49:31;;;;;;;2.02;1.20;;;;;;;20.21;52.22;98767.50;1669876;85;21607;-73
2021/05/15 08:51:58;;;;;;;3.85;1.50;;;;;;;20.08;53.16;98770.69;1678804;85;21003;-74
2021/05/15 08:54:25;;;;;;;3.42;1.75;;;;;;;19.94;52.57;98778.23;1663233;84;20988;-74
2021/05/15 08:56:52;;;;;;;7.83;1.75;;;;;;;19.73;51.71;98771.45;1678897;85;21061;-74
2021/05/15 08:59:18;;;;;;;1.30;1.20;;;;;;;19.54;51.64;98774.62;1689021;84;21498;-73
2021/05/15 09:01:45;;;;;;;2.55;1.42;;;;;;;19.39;52.78;98774.34;1688884;85;21086;-74
2021/05/15 09:04:12;;;;;;;2.08;1.57;;;;;;;19.29;53.72;98777.30;1688990;83;21015;-74
2021/05/15 09:06:41;;;;;;;2.10;1.32;;;;;;;19.28;53.44;98780.47;1689713;84;20952;-74
2021/05/15 09:09:08;;;;;;;3.85;1.10;;;;;;;19.30;54.31;98778.09;1689628;85;21530;-74
2021/05/15 09:11:36;;;;;;;3.50;1.30;;;;;;;19.48;54.28;98780.34;1688416;83;20993;-74
2021/05/15 09:14:03;;;;;;;2.85;1.20;;;;;;;19.96;54.20;98775.85;1684437;84;21301;-73
2021/05/15 09:16:30;;;;;;;1.20;1.10;;;;;;;20.32;53.20;98781.60;1684286;85;21024;-74
2021/05/15 09:19:05;;;;;;;3.33;1.20;;;;;;;20.51;51.62;98776.23;1666482;84;21512;-74
2021/05/15 09:21:34;;;;;;;5.15;1.20;;;;;;;20.46;50.42;98777.24;1676855;83;21065;-72
2021/05/15 09:24:05;;;;;;;6.22;1.47;;;;;;;20.25;49.97;98778.82;1680667;85;21004;-70
2021/05/15 09:26:28;;;;;;;4.45;1.25;;;;;;;20.05;51.57;98774.86;1634639;85;21687;-71
2021/05/15 09:28:56;;;;;;;5.22;1.50;;;;;;;19.82;52.30;98789.16;1678664;85;20992;-70
2021/05/15 09:31:32;;;;;;;3.50;1.42;;;;;;;19.56;53.99;98795.10;1665849;85;21501;-70
2021/05/15 09:34:01;;;;;;;2.15;1.40;;;;;;;19.22;55.99;98803.70;1667692;85;21032;-70
2021/05/15 09:36:33;;;;;;;4.90;2.25;;;;;;;18.92;56.82;98804.57;1689737;85;21480;-68
2021/05/15 09:39:21;;;;;;;1.35;1.25;;;;;;;18.65;58.05;98808.18;1689731;84;21127;-72
2021/05/15 09:41:58;;;;;;;3.80;1.50;;;;;;;18.47;58.59;98816.39;1687535;85;21009;-75
2021/05/15 09:44:33;;;;;;;2.62;1.62;;;;;;;18.38;59.79;98818.11;1688808;84;21606;-74
2021/05/15 09:47:00;;;;;;;2.58;1.75;;;;;;;18.41;61.21;98827.06;1688850;84;21570;-75
2021/05/15 09:49:29;;;;;;;3.15;1.70;;;;;;;18.46;61.70;98821.16;1688967;84;21377;-75
2021/05/15 09:52:05;;;;;;;4.58;1.52;;;;;;;18.52;60.42;98817.98;1688903;85;21500;-72
2021/05/15 09:54:34;;;;;;;1.27;0.90;;;;;;;18.56;61.26;98819.60;1689055;85;21567;-71
2021/05/15 09:57:09;;;;;;;1.30;1.20;;;;;;;18.62;60.64;98812.53;1689461;84;21571;-72
2021/05/15 09:59:40;;;;;;;2.05;1.02;;;;;;;18.72;60.55;98810.41;1686707;83;21633;-71
2021/05/15 10:02:15;;;;;;;3.25;1.30;;;;;;;18.82;59.89;98810.87;1661966;86;20948;-71
2021/05/15 10:04:54;;;;;;;1.80;1.30;;;;;;;18.96;59.77;98814.53;1661990;86;21088;-71
2021/05/15 10:07:25;;;;;;;1.55;0.90;;;;;;;19.13;58.47;98811.61;1660919;86;20913;-71
2021/05/15 10:09:52;;;;;;;3.67;1.47;;;;;;;19.30;57.61;98814.27;1670162;85;21857;-71
2021/05/15 10:12:19;;;;;;;2.08;0.90;;;;;;;19.44;58.05;98818.50;1689491;85;20948;-72
2021/05/15 10:14:45;;;;;;;1.42;1.22;;;;;;;19.55;56.29;98817.17;1689159;85;21067;-70
2021/05/15 10:17:12;;;;;;;3.80;0.70;;;;;;;19.70;56.31;98815.99;1684629;84;21030;-70
2021/05/15 10:19:40;;;;;;;3.62;0.78;;;;;;;19.80;53.56;98816.61;1673429;85;20984;-71
2021/05/15 10:22:07;;;;;;;2.30;1.00;;;;;;;19.78;53.52;98815.61;1661231;86;21574;-71
2021/05/15 10:24:36;;;;;;;3.10;1.27;;;;;;;19.77;53.10;98812.63;1665852;85;20929;-71
2021/05/15 10:27:06;;;;;;;1.87;1.07;;;;;;;19.72;53.20;98815.80;1689194;84;21586;-72
2021/05/15 10:29:38;;;;;;;7.22;2.50;;;;;;;19.61;53.69;98823.36;1680046;84;21116;-71
2021/05/15 10:32:11;;;;;;;5.58;2.20;;;;;;;19.58;55.45;98824.14;1675615;85;20988;-72
2021/05/15 10:34:38;;;;;;;1.80;1.20;;;;;;;19.82;56.46;98823.98;1689125;85;21614;-74
2021/05/15 10:37:20;;;;;;;1.10;0.80;;;;;;;19.99;55.24;98819.63;1668114;85;21583;-73
2021/05/15 10:39:51;;;;;;;2.15;1.02;;;;;;;20.12;52.50;98812.48;1665627;85;21578;-72
2021/05/15 10:42:28;;;;;;;1.45;1.00;;;;;;;20.08;52.34;98818.65;1688438;85;21076;-71
2021/05/15 10:44:55;;;;;;;4.58;0.90;;;;;;;20.04;53.10;98811.67;1689012;85;21586;-73
2021/05/15 10:47:22;;;;;;;5.60;1.27;;;;;;;20.07;52.81;98814.27;1689807;84;20909;-71
2021/05/15 10:49:50;;;;;;;1.42;1.07;;;;;;;20.11;52.96;98813.08;1689720;85;20941;-72
2021/05/15 10:52:18;;;;;;;1.47;0.70;;;;;;;20.17;52.16;98804.33;1689707;84;20968;-71
2021/05/15 10:54:51;;;;;;;0.70;0.65;;;;;;;20.21;50.27;98808.70;1666009;84;21609;-68
2021/05/15 10:57:22;;;;;;;2.92;0.60;;;;;;;20.24;52.18;98811.27;1660225;86;20932;-68
2021/05/15 11:00:01;;;;;;;4.70;1.10;;;;;;;20.29;50.28;98803.30;1670170;85;20861;-69
2021/05/15 11:02:37;;;;;;;0.78;0.78;;;;;;;20.17;50.41;98809.90;1683470;85;20905;-69
2021/05/15 11:05:17;;;;;;;2.37;0.80;;;;;;;19.96;50.51;98807.29;1678206;84;20936;-70
2021/05/15 11:07:44;;;;;;;1.92;0.88;;;;;;;19.81;52.25;98811.24;1669632;84;21058;-69
2021/05/15 11:10:16;;;;;;;3.62;1.37;;;;;;;19.67;52.16;98816.19;1675146;84;21565;-69
2021/05/15 11:12:51;;;;;;;1.72;0.95;;;;;;;19.52;53.93;98813.78;1690990;84;21541;-69
2021/05/15 11:15:19;;;;;;;4.25;0.90;;;;;;;19.41;53.98;98817.89;1691042;84;20966;-71
2021/05/15 11:18:00;;;;;;;7.10;1.37;;;;;;;19.34;53.71;98823.42;1682488;84;20992;-70
2021/05/15 11:20:26;;;;;;;1.50;0.90;;;;;;;19.25;53.93;98818.22;1662903;85;21110;-69
2021/05/15 11:22:53;;;;;;;4.20;1.00;;;;;;;19.33;53.95;98818.45;1671116;84;21036;-69
2021/05/15 11:25:27;;;;;;;2.08;1.00;;;;;;;19.61;55.61;98810.83;1671826;84;21437;-70
2021/05/15 11:28:02;;;;;;;1.77;0.90;;;;;;;20.13;54.71;98807.11;1685539;84;21108;-71
2021/05/15 11:30:31;;;;;;;2.95;0.80;;;;;;;20.75;54.72;98812.26;1690241;84;21755;-71
2021/05/15 11:33:04;;;;;;;1.60;0.70;;;;;;;21.24;49.86;98807.14;1686084;84;21085;-70
2021/05/15 11:35:46;;;;;;;2.37;0.80;;;;;;;21.41;48.95;98803.45;1673867;84;21048;-70